sensor_id;sensor_type;location;lat;lon;timestamp;P1;durP1;ratioP1;P2;durP2;ratioP2
76236;SDS011;65038;53.200;6.530;2023-06-22T00:00:27;20.85;;;12.63;;
76236;SDS011;65038;53.200;6.530;2023-06-22T00:02:53;18.33;;;12.35;;
76236;SDS011;65038;53.200;6.530;2023-06-22T00:05:19;16.95;;;12.38;;
76236;SDS011;65038;53.200;6.530;2023-06-22T00:07:45;18.98;;;12.68;;
76236;SDS011;65038;53.200;6.530;2023-06-22T00:10:11;19.70;;;12.65;;
76236;SDS011;65038;53.200;6.530;2023-06-22T00:12:37;19.45;;;12.98;;
76236;SDS011;65038;53.200;6.530;2023-06-22T00:15:04;20.20;;;13.15;;
76236;SDS011;65038;53.200;6.530;2023-06-22T00:17:30;18.75;;;12.30;;
76236;SDS011;65038;53.200;6.530;2023-06-22T00:19:56;17.90;;;11.60;;
76236;SDS011;65038;53.200;6.530;2023-06-22T00:22:25;20.08;;;12.68;;
76236;SDS011;65038;53.200;6.530;2023-06-22T00:24:53;16.98;;;12.52;;
76236;SDS011;65038;53.200;6.530;2023-06-22T00:27:19;17.80;;;11.65;;
76236;SDS011;65038;53.200;6.530;2023-06-22T00:29:45;17.80;;;12.07;;
76236;SDS011;65038;53.200;6.530;2023-06-22T00:32:11;18.08;;;13.07;;
76236;SDS011;65038;53.200;6.530;2023-06-22T00:34:37;18.70;;;12.73;;
76236;SDS011;65038;53.200;6.530;2023-06-22T00:37:03;18.58;;;12.95;;
76236;SDS011;65038;53.200;6.530;2023-06-22T00:39:30;23.67;;;14.27;;
76236;SDS011;65038;53.200;6.530;2023-06-22T00:41:58;17.92;;;12.50;;
76236;SDS011;65038;53.200;6.530;2023-06-22T00:44:24;20.70;;;14.23;;
76236;SDS011;65038;53.200;6.530;2023-06-22T00:46:54;21.42;;;13.75;;
76236;SDS011;65038;53.200;6.530;2023-06-22T00:49:20;19.75;;;13.88;;
76236;SDS011;65038;53.200;6.530;2023-06-22T00:51:46;21.08;;;13.95;;
76236;SDS011;65038;53.200;6.530;2023-06-22T00:54:12;22.10;;;14.70;;
76236;SDS011;65038;53.200;6.530;2023-06-22T00:56:39;20.67;;;14.50;;
76236;SDS011;65038;53.200;6.530;2023-06-22T00:59:06;19.80;;;13.55;;
76236;SDS011;65038;53.200;6.530;2023-06-22T01:01:32;21.50;;;13.90;;
76236;SDS011;65038;53.200;6.530;2023-06-22T01:03:59;20.65;;;14.43;;
76236;SDS011;65038;53.200;6.530;2023-06-22T01:06:26;18.30;;;13.27;;
76236;SDS011;65038;53.200;6.530;2023-06-22T01:09:00;21.45;;;14.35;;
76236;SDS011;65038;53.200;6.530;2023-06-22T01:11:32;20.67;;;13.75;;
76236;SDS011;65038;53.200;6.530;2023-06-22T01:14:06;20.85;;;15.00;;
76236;SDS011;65038;53.200;6.530;2023-06-22T01:16:37;20.38;;;14.20;;
76236;SDS011;65038;53.200;6.530;2023-06-22T01:19:20;22.67;;;14.75;;
76236;SDS011;65038;53.200;6.530;2023-06-22T01:21:50;17.77;;;12.65;;
76236;SDS011;65038;53.200;6.530;2023-06-22T01:24:26;20.15;;;13.20;;
76236;SDS011;65038;53.200;6.530;2023-06-22T01:29:39;18.60;;;13.27;;
76236;SDS011;65038;53.200;6.530;2023-06-22T01:32:05;19.30;;;12.48;;
76236;SDS011;65038;53.200;6.530;2023-06-22T01:34:32;21.77;;;13.60;;
76236;SDS011;65038;53.200;6.530;2023-06-22T01:36:59;23.33;;;14.60;;
76236;SDS011;65038;53.200;6.530;2023-06-22T01:39:25;24.65;;;15.27;;
76236;SDS011;65038;53.200;6.530;2023-06-22T01:41:51;21.48;;;14.57;;
76236;SDS011;65038;53.200;6.530;2023-06-22T01:44:19;22.98;;;14.93;;
76236;SDS011;65038;53.200;6.530;2023-06-22T01:46:46;22.55;;;14.25;;
76236;SDS011;65038;53.200;6.530;2023-06-22T01:49:14;21.05;;;14.73;;
76236;SDS011;65038;53.200;6.530;2023-06-22T01:51:40;22.23;;;14.93;;
76236;SDS011;65038;53.200;6.530;2023-06-22T01:54:07;24.38;;;16.85;;
76236;SDS011;65038;53.200;6.530;2023-06-22T01:56:33;25.00;;;17.35;;
76236;SDS011;65038;53.200;6.530;2023-06-22T01:59:14;23.77;;;16.77;;
76236;SDS011;65038;53.200;6.530;2023-06-22T02:01:42;23.45;;;16.25;;
76236;SDS011;65038;53.200;6.530;2023-06-22T02:04:11;27.65;;;18.15;;
76236;SDS011;65038;53.200;6.530;2023-06-22T02:06:39;26.02;;;15.98;;
76236;SDS011;65038;53.200;6.530;2023-06-22T02:09:08;27.13;;;17.70;;
76236;SDS011;65038;53.200;6.530;2023-06-22T02:11:36;24.67;;;15.93;;
76236;SDS011;65038;53.200;6.530;2023-06-22T02:14:02;26.23;;;16.45;;
76236;SDS011;65038;53.200;6.530;2023-06-22T02:16:28;22.90;;;15.93;;
76236;SDS011;65038;53.200;6.530;2023-06-22T02:18:57;23.60;;;15.85;;
76236;SDS011;65038;53.200;6.530;2023-06-22T02:21:28;21.98;;;14.95;;
76236;SDS011;65038;53.200;6.530;2023-06-22T02:23:54;25.45;;;15.60;;
76236;SDS011;65038;53.200;6.530;2023-06-22T02:26:20;24.67;;;15.82;;
76236;SDS011;65038;53.200;6.530;2023-06-22T02:28:46;24.92;;;16.35;;
76236;SDS011;65038;53.200;6.530;2023-06-22T02:31:12;22.35;;;15.25;;
76236;SDS011;65038;53.200;6.530;2023-06-22T02:33:38;20.98;;;14.68;;
76236;SDS011;65038;53.200;6.530;2023-06-22T02:36:04;23.40;;;15.13;;
76236;SDS011;65038;53.200;6.530;2023-06-22T02:38:34;23.23;;;14.95;;
76236;SDS011;65038;53.200;6.530;2023-06-22T02:41:01;23.15;;;15.68;;
76236;SDS011;65038;53.200;6.530;2023-06-22T02:43:27;22.92;;;15.70;;
76236;SDS011;65038;53.200;6.530;2023-06-22T02:45:53;23.27;;;16.23;;
76236;SDS011;65038;53.200;6.530;2023-06-22T02:48:19;23.88;;;16.35;;
76236;SDS011;65038;53.200;6.530;2023-06-22T02:50:45;24.63;;;15.98;;
76236;SDS011;65038;53.200;6.530;2023-06-22T02:53:11;24.27;;;17.70;;
76236;SDS011;65038;53.200;6.530;2023-06-22T02:55:37;28.30;;;19.27;;
76236;SDS011;65038;53.200;6.530;2023-06-22T02:58:04;28.15;;;18.50;;
76236;SDS011;65038;53.200;6.530;2023-06-22T03:00:31;27.13;;;18.20;;
76236;SDS011;65038;53.200;6.530;2023-06-22T03:02:57;26.15;;;17.48;;
76236;SDS011;65038;53.200;6.530;2023-06-22T03:05:23;26.10;;;18.02;;
76236;SDS011;65038;53.200;6.530;2023-06-22T03:07:49;24.48;;;17.27;;
76236;SDS011;65038;53.200;6.530;2023-06-22T03:10:16;26.52;;;17.40;;
76236;SDS011;65038;53.200;6.530;2023-06-22T03:12:42;24.10;;;15.68;;
76236;SDS011;65038;53.200;6.530;2023-06-22T03:15:09;21.13;;;14.60;;
76236;SDS011;65038;53.200;6.530;2023-06-22T03:17:36;23.23;;;15.93;;
76236;SDS011;65038;53.200;6.530;2023-06-22T03:20:03;21.23;;;15.18;;
76236;SDS011;65038;53.200;6.530;2023-06-22T03:25:05;22.52;;;14.77;;
76236;SDS011;65038;53.200;6.530;2023-06-22T03:27:37;22.48;;;15.30;;
76236;SDS011;65038;53.200;6.530;2023-06-22T03:30:04;24.13;;;15.98;;
76236;SDS011;65038;53.200;6.530;2023-06-22T03:32:30;23.98;;;15.65;;
76236;SDS011;65038;53.200;6.530;2023-06-22T03:34:56;26.98;;;16.60;;
76236;SDS011;65038;53.200;6.530;2023-06-22T03:37:24;25.10;;;16.40;;
76236;SDS011;65038;53.200;6.530;2023-06-22T03:39:50;26.80;;;18.23;;
76236;SDS011;65038;53.200;6.530;2023-06-22T03:42:16;25.83;;;18.52;;
76236;SDS011;65038;53.200;6.530;2023-06-22T03:44:42;31.20;;;19.05;;
76236;SDS011;65038;53.200;6.530;2023-06-22T03:47:08;27.23;;;18.67;;
76236;SDS011;65038;53.200;6.530;2023-06-22T03:49:34;31.65;;;20.50;;
76236;SDS011;65038;53.200;6.530;2023-06-22T03:52:01;30.77;;;19.92;;
76236;SDS011;65038;53.200;6.530;2023-06-22T03:54:28;29.40;;;20.05;;
76236;SDS011;65038;53.200;6.530;2023-06-22T03:56:54;30.25;;;19.75;;
76236;SDS011;65038;53.200;6.530;2023-06-22T03:59:20;26.95;;;18.70;;
76236;SDS011;65038;53.200;6.530;2023-06-22T04:01:46;27.50;;;19.98;;
76236;SDS011;65038;53.200;6.530;2023-06-22T04:04:12;38.42;;;22.85;;
76236;SDS011;65038;53.200;6.530;2023-06-22T04:06:38;33.30;;;21.95;;
76236;SDS011;65038;53.200;6.530;2023-06-22T04:09:05;33.95;;;21.00;;
76236;SDS011;65038;53.200;6.530;2023-06-22T04:11:31;33.95;;;21.98;;
76236;SDS011;65038;53.200;6.530;2023-06-22T04:13:58;36.58;;;23.10;;
76236;SDS011;65038;53.200;6.530;2023-06-22T04:16:23;38.92;;;24.88;;
76236;SDS011;65038;53.200;6.530;2023-06-22T04:18:50;34.72;;;23.08;;
76236;SDS011;65038;53.200;6.530;2023-06-22T04:21:16;37.85;;;25.25;;
76236;SDS011;65038;53.200;6.530;2023-06-22T04:23:41;33.72;;;22.35;;
76236;SDS011;65038;53.200;6.530;2023-06-22T04:26:08;30.02;;;20.67;;
76236;SDS011;65038;53.200;6.530;2023-06-22T04:28:34;31.20;;;21.63;;
76236;SDS011;65038;53.200;6.530;2023-06-22T04:31:01;32.83;;;22.08;;
76236;SDS011;65038;53.200;6.530;2023-06-22T04:33:27;39.83;;;25.15;;
76236;SDS011;65038;53.200;6.530;2023-06-22T04:35:57;39.45;;;25.50;;
76236;SDS011;65038;53.200;6.530;2023-06-22T04:38:23;39.78;;;26.10;;
76236;SDS011;65038;53.200;6.530;2023-06-22T04:40:50;37.17;;;23.88;;
76236;SDS011;65038;53.200;6.530;2023-06-22T04:43:16;37.40;;;24.40;;
76236;SDS011;65038;53.200;6.530;2023-06-22T04:45:42;37.53;;;24.45;;
76236;SDS011;65038;53.200;6.530;2023-06-22T04:48:08;37.58;;;24.35;;
76236;SDS011;65038;53.200;6.530;2023-06-22T04:50:35;35.85;;;22.83;;
76236;SDS011;65038;53.200;6.530;2023-06-22T04:53:03;36.55;;;23.42;;
76236;SDS011;65038;53.200;6.530;2023-06-22T04:55:31;37.28;;;25.35;;
76236;SDS011;65038;53.200;6.530;2023-06-22T04:57:57;35.45;;;24.88;;
76236;SDS011;65038;53.200;6.530;2023-06-22T05:00:30;39.08;;;24.88;;
76236;SDS011;65038;53.200;6.530;2023-06-22T05:02:56;41.85;;;26.80;;
76236;SDS011;65038;53.200;6.530;2023-06-22T05:05:23;42.70;;;27.80;;
76236;SDS011;65038;53.200;6.530;2023-06-22T05:07:50;47.10;;;28.67;;
76236;SDS011;65038;53.200;6.530;2023-06-22T05:10:17;46.83;;;29.05;;
76236;SDS011;65038;53.200;6.530;2023-06-22T05:12:43;43.42;;;27.58;;
76236;SDS011;65038;53.200;6.530;2023-06-22T05:15:09;41.47;;;27.70;;
76236;SDS011;65038;53.200;6.530;2023-06-22T05:17:36;42.75;;;26.92;;
76236;SDS011;65038;53.200;6.530;2023-06-22T05:20:08;42.42;;;27.23;;
76236;SDS011;65038;53.200;6.530;2023-06-22T05:22:34;44.13;;;27.83;;
76236;SDS011;65038;53.200;6.530;2023-06-22T05:25:00;40.90;;;27.15;;
76236;SDS011;65038;53.200;6.530;2023-06-22T05:27:26;44.92;;;26.73;;
76236;SDS011;65038;53.200;6.530;2023-06-22T05:29:52;42.17;;;27.40;;
76236;SDS011;65038;53.200;6.530;2023-06-22T05:32:18;42.33;;;25.80;;
76236;SDS011;65038;53.200;6.530;2023-06-22T05:34:44;41.03;;;27.73;;
76236;SDS011;65038;53.200;6.530;2023-06-22T05:37:10;40.38;;;25.27;;
76236;SDS011;65038;53.200;6.530;2023-06-22T05:39:37;39.53;;;25.00;;
76236;SDS011;65038;53.200;6.530;2023-06-22T05:42:06;34.70;;;22.83;;
76236;SDS011;65038;53.200;6.530;2023-06-22T05:44:33;34.72;;;23.80;;
76236;SDS011;65038;53.200;6.530;2023-06-22T05:46:59;35.53;;;22.85;;
76236;SDS011;65038;53.200;6.530;2023-06-22T05:49:25;33.88;;;22.83;;
76236;SDS011;65038;53.200;6.530;2023-06-22T05:51:57;25.92;;;17.95;;
76236;SDS011;65038;53.200;6.530;2023-06-22T05:54:23;26.15;;;17.83;;
76236;SDS011;65038;53.200;6.530;2023-06-22T05:56:49;29.13;;;18.60;;
76236;SDS011;65038;53.200;6.530;2023-06-22T05:59:16;25.48;;;17.98;;
76236;SDS011;65038;53.200;6.530;2023-06-22T06:01:42;26.38;;;17.35;;
76236;SDS011;65038;53.200;6.530;2023-06-22T06:04:08;25.92;;;17.65;;
76236;SDS011;65038;53.200;6.530;2023-06-22T06:06:34;28.40;;;18.35;;
76236;SDS011;65038;53.200;6.530;2023-06-22T06:09:02;24.30;;;15.77;;
76236;SDS011;65038;53.200;6.530;2023-06-22T06:11:28;26.40;;;16.83;;
76236;SDS011;65038;53.200;6.530;2023-06-22T06:13:54;24.33;;;16.23;;
76236;SDS011;65038;53.200;6.530;2023-06-22T06:16:21;24.13;;;15.73;;
76236;SDS011;65038;53.200;6.530;2023-06-22T06:18:47;24.50;;;15.30;;
76236;SDS011;65038;53.200;6.530;2023-06-22T06:21:15;23.35;;;16.02;;
76236;SDS011;65038;53.200;6.530;2023-06-22T06:23:41;18.98;;;13.45;;
76236;SDS011;65038;53.200;6.530;2023-06-22T06:26:07;21.23;;;14.73;;
76236;SDS011;65038;53.200;6.530;2023-06-22T06:28:34;22.35;;;14.88;;
76236;SDS011;65038;53.200;6.530;2023-06-22T06:31:00;20.17;;;13.95;;
76236;SDS011;65038;53.200;6.530;2023-06-22T06:33:26;21.05;;;13.52;;
76236;SDS011;65038;53.200;6.530;2023-06-22T06:35:52;19.80;;;13.70;;
76236;SDS011;65038;53.200;6.530;2023-06-22T06:38:20;17.77;;;12.05;;
76236;SDS011;65038;53.200;6.530;2023-06-22T06:40:46;18.30;;;12.80;;
76236;SDS011;65038;53.200;6.530;2023-06-22T06:43:14;19.83;;;12.23;;
76236;SDS011;65038;53.200;6.530;2023-06-22T06:45:40;23.00;;;13.27;;
76236;SDS011;65038;53.200;6.530;2023-06-22T06:48:06;19.15;;;13.80;;
76236;SDS011;65038;53.200;6.530;2023-06-22T06:50:32;20.48;;;13.68;;
76236;SDS011;65038;53.200;6.530;2023-06-22T06:52:58;23.25;;;13.40;;
76236;SDS011;65038;53.200;6.530;2023-06-22T06:55:24;21.30;;;13.65;;
76236;SDS011;65038;53.200;6.530;2023-06-22T06:57:50;22.60;;;13.85;;
76236;SDS011;65038;53.200;6.530;2023-06-22T07:00:17;19.42;;;13.13;;
76236;SDS011;65038;53.200;6.530;2023-06-22T07:02:44;19.60;;;13.77;;
76236;SDS011;65038;53.200;6.530;2023-06-22T07:05:11;16.00;;;10.77;;
76236;SDS011;65038;53.200;6.530;2023-06-22T07:07:37;18.45;;;12.15;;
76236;SDS011;65038;53.200;6.530;2023-06-22T07:10:04;15.75;;;10.50;;
76236;SDS011;65038;53.200;6.530;2023-06-22T07:12:31;16.95;;;12.00;;
76236;SDS011;65038;53.200;6.530;2023-06-22T07:15:07;15.50;;;10.98;;
76236;SDS011;65038;53.200;6.530;2023-06-22T07:17:33;14.88;;;10.05;;
76236;SDS011;65038;53.200;6.530;2023-06-22T07:20:00;14.68;;;9.65;;
76236;SDS011;65038;53.200;6.530;2023-06-22T07:22:26;12.98;;;8.65;;
76236;SDS011;65038;53.200;6.530;2023-06-22T07:24:52;13.45;;;8.02;;
76236;SDS011;65038;53.200;6.530;2023-06-22T07:27:18;12.25;;;8.40;;
76236;SDS011;65038;53.200;6.530;2023-06-22T07:29:45;12.75;;;9.32;;
76236;SDS011;65038;53.200;6.530;2023-06-22T07:32:11;22.65;;;9.93;;
76236;SDS011;65038;53.200;6.530;2023-06-22T07:34:37;11.77;;;7.82;;
76236;SDS011;65038;53.200;6.530;2023-06-22T07:37:03;12.85;;;7.88;;
76236;SDS011;65038;53.200;6.530;2023-06-22T07:39:30;13.02;;;7.50;;
76236;SDS011;65038;53.200;6.530;2023-06-22T07:41:56;11.13;;;7.93;;
76236;SDS011;65038;53.200;6.530;2023-06-22T07:44:22;12.85;;;8.07;;
76236;SDS011;65038;53.200;6.530;2023-06-22T07:46:48;13.30;;;8.23;;
76236;SDS011;65038;53.200;6.530;2023-06-22T07:49:14;10.38;;;7.07;;
76236;SDS011;65038;53.200;6.530;2023-06-22T07:51:40;14.88;;;8.95;;
76236;SDS011;65038;53.200;6.530;2023-06-22T07:54:06;15.43;;;8.45;;
76236;SDS011;65038;53.200;6.530;2023-06-22T07:56:32;12.73;;;7.47;;
76236;SDS011;65038;53.200;6.530;2023-06-22T07:58:58;11.70;;;7.90;;
76236;SDS011;65038;53.200;6.530;2023-06-22T08:01:25;11.00;;;6.32;;
76236;SDS011;65038;53.200;6.530;2023-06-22T08:03:52;11.65;;;7.38;;
76236;SDS011;65038;53.200;6.530;2023-06-22T08:06:18;10.40;;;6.50;;
76236;SDS011;65038;53.200;6.530;2023-06-22T08:08:44;9.82;;;5.50;;
76236;SDS011;65038;53.200;6.530;2023-06-22T08:11:13;14.18;;;5.22;;
76236;SDS011;65038;53.200;6.530;2023-06-22T08:13:39;8.13;;;5.10;;
76236;SDS011;65038;53.200;6.530;2023-06-22T08:16:05;9.10;;;5.72;;
76236;SDS011;65038;53.200;6.530;2023-06-22T08:18:32;10.73;;;6.63;;
76236;SDS011;65038;53.200;6.530;2023-06-22T08:20:58;9.07;;;6.05;;
76236;SDS011;65038;53.200;6.530;2023-06-22T08:23:24;8.70;;;5.10;;
76236;SDS011;65038;53.200;6.530;2023-06-22T08:25:50;8.27;;;5.25;;
76236;SDS011;65038;53.200;6.530;2023-06-22T08:28:16;8.30;;;5.22;;
76236;SDS011;65038;53.200;6.530;2023-06-22T08:30:42;9.30;;;5.15;;
76236;SDS011;65038;53.200;6.530;2023-06-22T08:33:08;7.88;;;5.00;;
76236;SDS011;65038;53.200;6.530;2023-06-22T08:35:34;8.75;;;4.90;;
76236;SDS011;65038;53.200;6.530;2023-06-22T08:38:00;9.45;;;4.70;;
76236;SDS011;65038;53.200;6.530;2023-06-22T08:40:27;8.98;;;5.60;;
76236;SDS011;65038;53.200;6.530;2023-06-22T08:42:54;8.65;;;5.60;;
76236;SDS011;65038;53.200;6.530;2023-06-22T08:45:20;8.45;;;4.90;;
76236;SDS011;65038;53.200;6.530;2023-06-22T08:47:46;8.20;;;4.93;;
76236;SDS011;65038;53.200;6.530;2023-06-22T08:50:12;7.97;;;4.57;;
76236;SDS011;65038;53.200;6.530;2023-06-22T08:52:39;8.23;;;4.85;;
76236;SDS011;65038;53.200;6.530;2023-06-22T08:55:08;9.43;;;4.47;;
76236;SDS011;65038;53.200;6.530;2023-06-22T08:57:34;6.13;;;3.65;;
76236;SDS011;65038;53.200;6.530;2023-06-22T09:00:03;7.97;;;3.95;;
76236;SDS011;65038;53.200;6.530;2023-06-22T09:02:30;8.32;;;4.50;;
76236;SDS011;65038;53.200;6.530;2023-06-22T09:04:59;7.65;;;4.47;;
76236;SDS011;65038;53.200;6.530;2023-06-22T09:07:26;7.72;;;4.57;;
76236;SDS011;65038;53.200;6.530;2023-06-22T09:09:52;8.38;;;4.88;;
76236;SDS011;65038;53.200;6.530;2023-06-22T09:12:20;7.15;;;4.40;;
76236;SDS011;65038;53.200;6.530;2023-06-22T09:14:50;9.32;;;4.97;;
76236;SDS011;65038;53.200;6.530;2023-06-22T09:17:16;8.00;;;4.90;;
76236;SDS011;65038;53.200;6.530;2023-06-22T09:19:42;9.57;;;5.43;;
76236;SDS011;65038;53.200;6.530;2023-06-22T09:22:08;7.28;;;4.75;;
76236;SDS011;65038;53.200;6.530;2023-06-22T09:24:34;9.35;;;5.38;;
76236;SDS011;65038;53.200;6.530;2023-06-22T09:27:00;7.95;;;5.43;;
76236;SDS011;65038;53.200;6.530;2023-06-22T09:29:26;8.80;;;5.47;;
76236;SDS011;65038;53.200;6.530;2023-06-22T09:31:52;10.10;;;6.13;;
76236;SDS011;65038;53.200;6.530;2023-06-22T09:34:18;9.60;;;6.28;;
76236;SDS011;65038;53.200;6.530;2023-06-22T09:36:45;7.50;;;5.32;;
76236;SDS011;65038;53.200;6.530;2023-06-22T09:39:11;8.68;;;5.72;;
76236;SDS011;65038;53.200;6.530;2023-06-22T09:41:37;8.90;;;6.35;;
76236;SDS011;65038;53.200;6.530;2023-06-22T09:44:04;10.65;;;6.65;;
76236;SDS011;65038;53.200;6.530;2023-06-22T09:46:30;8.65;;;5.80;;
76236;SDS011;65038;53.200;6.530;2023-06-22T09:48:56;7.90;;;5.70;;
76236;SDS011;65038;53.200;6.530;2023-06-22T09:51:22;9.18;;;6.00;;
76236;SDS011;65038;53.200;6.530;2023-06-22T09:53:49;8.02;;;5.30;;
76236;SDS011;65038;53.200;6.530;2023-06-22T09:56:15;10.05;;;6.45;;
76236;SDS011;65038;53.200;6.530;2023-06-22T09:58:44;10.75;;;5.85;;
76236;SDS011;65038;53.200;6.530;2023-06-22T10:01:11;10.00;;;5.95;;
76236;SDS011;65038;53.200;6.530;2023-06-22T10:03:39;8.68;;;5.85;;
76236;SDS011;65038;53.200;6.530;2023-06-22T10:06:06;8.63;;;6.25;;
76236;SDS011;65038;53.200;6.530;2023-06-22T10:08:32;8.23;;;5.82;;
76236;SDS011;65038;53.200;6.530;2023-06-22T10:10:58;7.90;;;5.10;;
76236;SDS011;65038;53.200;6.530;2023-06-22T10:13:24;8.00;;;5.60;;
76236;SDS011;65038;53.200;6.530;2023-06-22T10:15:50;9.05;;;5.47;;
76236;SDS011;65038;53.200;6.530;2023-06-22T10:18:19;7.80;;;5.20;;
76236;SDS011;65038;53.200;6.530;2023-06-22T10:20:47;8.95;;;5.20;;
76236;SDS011;65038;53.200;6.530;2023-06-22T10:23:13;8.98;;;5.13;;
76236;SDS011;65038;53.200;6.530;2023-06-22T10:25:39;8.10;;;5.10;;
76236;SDS011;65038;53.200;6.530;2023-06-22T10:28:05;10.05;;;6.40;;
76236;SDS011;65038;53.200;6.530;2023-06-22T10:30:32;9.90;;;5.63;;
76236;SDS011;65038;53.200;6.530;2023-06-22T10:32:58;31.15;;;6.25;;
76236;SDS011;65038;53.200;6.530;2023-06-22T10:35:24;7.57;;;5.22;;
76236;SDS011;65038;53.200;6.530;2023-06-22T10:37:50;7.15;;;5.07;;
76236;SDS011;65038;53.200;6.530;2023-06-22T10:40:16;11.98;;;5.75;;
76236;SDS011;65038;53.200;6.530;2023-06-22T10:42:43;9.18;;;5.70;;
76236;SDS011;65038;53.200;6.530;2023-06-22T10:45:10;7.97;;;5.13;;
76236;SDS011;65038;53.200;6.530;2023-06-22T10:47:36;7.97;;;5.30;;
76236;SDS011;65038;53.200;6.530;2023-06-22T10:50:02;7.13;;;4.97;;
76236;SDS011;65038;53.200;6.530;2023-06-22T10:52:29;9.23;;;5.07;;
76236;SDS011;65038;53.200;6.530;2023-06-22T10:54:55;8.57;;;4.75;;
76236;SDS011;65038;53.200;6.530;2023-06-22T10:57:21;7.85;;;4.72;;
76236;SDS011;65038;53.200;6.530;2023-06-22T10:59:47;8.88;;;5.47;;
76236;SDS011;65038;53.200;6.530;2023-06-22T11:02:13;8.82;;;4.85;;
76236;SDS011;65038;53.200;6.530;2023-06-22T11:04:39;7.90;;;5.05;;
76236;SDS011;65038;53.200;6.530;2023-06-22T11:07:05;7.40;;;5.40;;
76236;SDS011;65038;53.200;6.530;2023-06-22T11:09:31;9.73;;;5.60;;
76236;SDS011;65038;53.200;6.530;2023-06-22T11:11:57;7.75;;;4.65;;
76236;SDS011;65038;53.200;6.530;2023-06-22T11:14:24;8.13;;;5.30;;
76236;SDS011;65038;53.200;6.530;2023-06-22T11:16:50;8.43;;;5.03;;
76236;SDS011;65038;53.200;6.530;2023-06-22T11:19:16;7.80;;;5.05;;
76236;SDS011;65038;53.200;6.530;2023-06-22T11:21:42;8.18;;;4.68;;
76236;SDS011;65038;53.200;6.530;2023-06-22T11:24:08;9.30;;;4.85;;
76236;SDS011;65038;53.200;6.530;2023-06-22T11:26:34;8.35;;;5.53;;
76236;SDS011;65038;53.200;6.530;2023-06-22T11:29:01;8.35;;;5.32;;
76236;SDS011;65038;53.200;6.530;2023-06-22T11:31:30;8.40;;;4.90;;
76236;SDS011;65038;53.200;6.530;2023-06-22T11:33:56;7.72;;;4.90;;
76236;SDS011;65038;53.200;6.530;2023-06-22T11:36:22;7.70;;;5.32;;
76236;SDS011;65038;53.200;6.530;2023-06-22T11:38:48;7.10;;;4.90;;
76236;SDS011;65038;53.200;6.530;2023-06-22T11:41:14;6.10;;;4.05;;
76236;SDS011;65038;53.200;6.530;2023-06-22T11:43:40;7.47;;;4.82;;
76236;SDS011;65038;53.200;6.530;2023-06-22T11:46:06;7.20;;;4.40;;
76236;SDS011;65038;53.200;6.530;2023-06-22T11:48:33;8.05;;;5.10;;
76236;SDS011;65038;53.200;6.530;2023-06-22T11:50:59;8.65;;;4.55;;
76236;SDS011;65038;53.200;6.530;2023-06-22T11:53:25;7.93;;;4.68;;
76236;SDS011;65038;53.200;6.530;2023-06-22T11:55:52;6.28;;;4.15;;
76236;SDS011;65038;53.200;6.530;2023-06-22T11:58:19;8.07;;;4.88;;
76236;SDS011;65038;53.200;6.530;2023-06-22T12:00:45;7.22;;;4.97;;
76236;SDS011;65038;53.200;6.530;2023-06-22T12:03:11;8.77;;;5.63;;
76236;SDS011;65038;53.200;6.530;2023-06-22T12:05:37;8.85;;;5.63;;
76236;SDS011;65038;53.200;6.530;2023-06-22T12:08:04;10.20;;;5.60;;
76236;SDS011;65038;53.200;6.530;2023-06-22T12:10:30;8.80;;;5.07;;
76236;SDS011;65038;53.200;6.530;2023-06-22T12:12:56;8.30;;;4.53;;
76236;SDS011;65038;53.200;6.530;2023-06-22T12:15:23;8.20;;;5.00;;
76236;SDS011;65038;53.200;6.530;2023-06-22T12:17:49;8.38;;;4.85;;
76236;SDS011;65038;53.200;6.530;2023-06-22T12:20:15;8.60;;;4.78;;
76236;SDS011;65038;53.200;6.530;2023-06-22T12:22:41;7.28;;;4.63;;
76236;SDS011;65038;53.200;6.530;2023-06-22T12:25:07;6.75;;;5.05;;
76236;SDS011;65038;53.200;6.530;2023-06-22T12:27:34;9.40;;;5.20;;
76236;SDS011;65038;53.200;6.530;2023-06-22T12:30:00;9.18;;;5.18;;
76236;SDS011;65038;53.200;6.530;2023-06-22T12:32:26;9.45;;;4.50;;
76236;SDS011;65038;53.200;6.530;2023-06-22T12:34:52;7.75;;;5.13;;
76236;SDS011;65038;53.200;6.530;2023-06-22T12:37:18;8.60;;;4.50;;
76236;SDS011;65038;53.200;6.530;2023-06-22T12:39:44;7.53;;;4.90;;
76236;SDS011;65038;53.200;6.530;2023-06-22T12:42:10;7.45;;;4.85;;
76236;SDS011;65038;53.200;6.530;2023-06-22T12:44:40;7.60;;;5.22;;
76236;SDS011;65038;53.200;6.530;2023-06-22T12:47:06;7.88;;;4.30;;
76236;SDS011;65038;53.200;6.530;2023-06-22T12:49:33;9.95;;;5.20;;
76236;SDS011;65038;53.200;6.530;2023-06-22T12:52:00;7.57;;;5.03;;
76236;SDS011;65038;53.200;6.530;2023-06-22T12:54:26;8.38;;;5.32;;
76236;SDS011;65038;53.200;6.530;2023-06-22T12:56:53;8.95;;;5.60;;
76236;SDS011;65038;53.200;6.530;2023-06-22T12:59:19;7.60;;;4.80;;
76236;SDS011;65038;53.200;6.530;2023-06-22T13:01:45;6.85;;;4.30;;
76236;SDS011;65038;53.200;6.530;2023-06-22T13:04:11;6.95;;;4.15;;
76236;SDS011;65038;53.200;6.530;2023-06-22T13:06:40;7.68;;;4.50;;
76236;SDS011;65038;53.200;6.530;2023-06-22T13:09:06;10.73;;;4.85;;
76236;SDS011;65038;53.200;6.530;2023-06-22T13:11:32;8.55;;;4.70;;
76236;SDS011;65038;53.200;6.530;2023-06-22T13:13:58;6.50;;;3.95;;
76236;SDS011;65038;53.200;6.530;2023-06-22T13:16:24;7.93;;;4.13;;
76236;SDS011;65038;53.200;6.530;2023-06-22T13:18:50;5.18;;;3.60;;
76236;SDS011;65038;53.200;6.530;2023-06-22T13:21:16;7.47;;;4.20;;
76236;SDS011;65038;53.200;6.530;2023-06-22T13:23:42;7.28;;;3.40;;
76236;SDS011;65038;53.200;6.530;2023-06-22T13:26:08;5.72;;;3.10;;
76236;SDS011;65038;53.200;6.530;2023-06-22T13:28:34;6.80;;;3.25;;
76236;SDS011;65038;53.200;6.530;2023-06-22T13:31:00;5.07;;;3.50;;
76236;SDS011;65038;53.200;6.530;2023-06-22T13:33:26;5.35;;;3.30;;
76236;SDS011;65038;53.200;6.530;2023-06-22T13:35:52;6.10;;;3.28;;
76236;SDS011;65038;53.200;6.530;2023-06-22T13:38:18;7.75;;;3.28;;
76236;SDS011;65038;53.200;6.530;2023-06-22T13:40:44;6.05;;;3.10;;
76236;SDS011;65038;53.200;6.530;2023-06-22T13:43:12;5.20;;;2.97;;
76236;SDS011;65038;53.200;6.530;2023-06-22T13:45:38;6.05;;;3.22;;
76236;SDS011;65038;53.200;6.530;2023-06-22T13:48:04;5.80;;;3.72;;
76236;SDS011;65038;53.200;6.530;2023-06-22T13:50:30;6.57;;;2.92;;
76236;SDS011;65038;53.200;6.530;2023-06-22T13:52:56;5.72;;;3.28;;
76236;SDS011;65038;53.200;6.530;2023-06-22T13:55:22;5.22;;;3.20;;
76236;SDS011;65038;53.200;6.530;2023-06-22T13:57:48;5.78;;;2.90;;
76236;SDS011;65038;53.200;6.530;2023-06-22T14:00:16;6.20;;;2.95;;
76236;SDS011;65038;53.200;6.530;2023-06-22T14:02:42;5.57;;;3.10;;
76236;SDS011;65038;53.200;6.530;2023-06-22T14:05:08;6.80;;;2.75;;
76236;SDS011;65038;53.200;6.530;2023-06-22T14:07:35;7.22;;;3.00;;
76236;SDS011;65038;53.200;6.530;2023-06-22T14:10:02;6.05;;;3.08;;
76236;SDS011;65038;53.200;6.530;2023-06-22T14:12:28;6.15;;;2.88;;
76236;SDS011;65038;53.200;6.530;2023-06-22T14:14:54;3.75;;;2.45;;
76236;SDS011;65038;53.200;6.530;2023-06-22T14:17:20;5.13;;;2.40;;
76236;SDS011;65038;53.200;6.530;2023-06-22T14:19:50;7.35;;;2.70;;
76236;SDS011;65038;53.200;6.530;2023-06-22T14:22:20;4.53;;;2.53;;
76236;SDS011;65038;53.200;6.530;2023-06-22T14:24:46;5.75;;;2.30;;
76236;SDS011;65038;53.200;6.530;2023-06-22T14:27:12;9.27;;;2.53;;
76236;SDS011;65038;53.200;6.530;2023-06-22T14:29:38;5.30;;;2.20;;
76236;SDS011;65038;53.200;6.530;2023-06-22T14:32:05;4.30;;;2.08;;
76236;SDS011;65038;53.200;6.530;2023-06-22T14:34:31;4.07;;;2.00;;